Date,TemperatureHighF,TemperatureAvgF,TemperatureLowF,DewpointHighF,DewpointAvgF,DewpointLowF,HumidityHigh,HumidityAvg,HumidityLow,PressureMaxIn,PressureMinIn,WindSpeedMaxMPH,WindSpeedAvgMPH,GustSpeedMaxMPH,PrecipitationSumIn
2013-9-1,88,74,67,73,67,-100,99,82,56,0.00,40.00,4,1,11,0.38
2013-9-2,90,76,66,71,67,63,98,77,45,0.00,40.00,4,2,13,0.01
2013-9-3,80,69,59,64,57,53,94,68,39,0.00,40.00,3,1,12,0.00
2013-9-4,84,69,56,59,56,54,98,69,37,0.00,40.00,3,1,9,0.00
2013-9-5,88,75,62,62,59,57,87,62,38,0.00,40.00,3,1,9,0.00
2013-9-6,87,73,61,63,59,54,84,63,45,0.00,40.00,3,2,10,0.00
2013-9-7,90,75,63,65,60,56,85,63,37,0.00,40.00,4,1,13,0.00
2013-9-8,90,76,68,68,63,-100,98,72,44,0.00,40.00,3,1,11,0.01
2013-9-9,96,79,67,70,68,64,96,72,41,0.00,40.00,3,1,15,0.01
2013-9-10,94,78,70,73,70,68,98,79,45,0.00,40.00,4,2,16,0.39
2013-9-11,94,76,69,73,69,65,99,82,39,0.00,40.00,3,2,10,0.02
2013-9-12,79,73,67,72,68,63,98,85,65,0.00,40.00,3,2,12,0.07
2013-9-13,70,63,53,63,50,43,94,65,40,0.00,40.00,4,2,15,0.02
2013-9-14,74,59,44,48,44,41,97,64,32,0.00,40.00,4,1,10,0.00
2013-9-15,82,69,56,56,46,-100,70,50,34,0.00,40.00,3,1,11,0.00
2013-9-16,70,65,58,59,57,55,90,77,66,0.00,40.00,3,1,12,0.00
2013-9-17,77,63,51,55,52,50,96,72,42,0.00,40.00,4,2,14,0.00
2013-9-18,68,61,60,58,55,51,91,81,68,0.00,40.00,1,0,5,0.00
2013-9-19,84,70,65,72,67,65,99,92,67,0.00,40.00,3,1,10,1.77
2013-9-20,84,72,66,71,68,65,99,89,61,0.00,40.00,4,2,14,0.44
2013-9-21,72,63,56,66,56,48,99,79,45,0.00,40.00,4,2,11,0.57
2013-9-22,72,59,48,51,46,-100,98,70,43,0.00,40.00,3,1,10,0.05
2013-9-23,74,60,47,51,48,45,94,67,40,0.00,40.00,4,2,13,0.00
2013-9-24,79,63,50,60,54,48,94,74,53,0.00,40.00,4,2,10,0.00
2013-9-25,79,68,59,62,59,57,95,76,51,0.00,40.00,4,2,11,0.00
2013-9-26,80,66,52,59,53,50,98,67,37,0.00,40.00,3,1,9,0.00
2013-9-27,83,73,55,58,54,51,96,55,35,0.00,40.00,3,1,9,0.00
2013-9-28,84,77,63,59,58,56,79,54,40,0.00,40.00,3,1,11,0.00
2013-9-29,64,60,59,61,56,-100,99,89,79,0.00,40.00,2,1,11,0.29
2013-9-30,75,66,61,65,62,61,99,89,67,0.00,40.00,3,1,10,0.06